Time,TemperatureF,DewpointF,PressureIn,WindDirection,WindDirectionDegrees,WindSpeedMPH,WindSpeedGustMPH,Humidity,HourlyPrecipIn,Conditions,Clouds,dailyrainin,SoftwareType,DateUTC
2013-04-06 00:58:00,23.5,19.0,30.23,NNE,23,0.0,-999.0,81,-99.99,,,0.00,weatherlink.com 1.10,2013-04-06 04:58:00,
2013-04-06 01:28:00,23.8,18.0,30.22,NNE,22,0.0,-999.0,79,-99.99,,,0.00,weatherlink.com 1.10,2013-04-06 05:28:00,
2013-04-06 01:58:00,25.0,18.0,30.21,NNE,23,0.0,-999.0,76,-99.99,,,0.00,weatherlink.com 1.10,2013-04-06 05:58:00,
2013-04-06 02:28:00,26.0,17.0,30.21,South,175,0.0,-999.0,68,-99.99,,,0.00,weatherlink.com 1.10,2013-04-06 06:28:00,
2013-04-06 02:58:00,27.0,18.0,30.19,South,169,0.0,-999.0,68,-99.99,,,0.00,weatherlink.com 1.10,2013-04-06 06:58:00,
2013-04-06 03:28:00,27.2,18.0,30.18,South,175,1.0,-999.0,68,-99.99,,,0.00,weatherlink.com 1.10,2013-04-06 07:28:00,
2013-04-06 03:58:00,27.6,19.0,30.18,SSW,192,0.0,-999.0,70,-99.99,,,0.00,weatherlink.com 1.10,2013-04-06 07:58:00,
2013-04-06 04:14:00,27.9,20.0,30.17,SSW,207,0.0,-999.0,71,-99.99,,,0.00,weatherlink.com 1.10,2013-04-06 08:14:00,
2013-04-06 04:43:00,28.5,21.0,30.16,SSW,203,0.0,-999.0,72,-99.99,,,0.00,weatherlink.com 1.10,2013-04-06 08:43:00,
2013-04-06 04:59:00,28.8,21.0,30.16,SSW,204,0.0,-999.0,72,-99.99,,,0.00,weatherlink.com 1.10,2013-04-06 08:59:00,
2013-04-06 05:14:00,28.9,21.0,30.16,South,178,2.0,-999.0,73,-99.99,,,0.00,weatherlink.com 1.10,2013-04-06 09:14:00,
2013-04-06 05:28:00,29.0,22.0,30.15,SSW,200,0.0,-999.0,75,-99.99,,,0.00,weatherlink.com 1.10,2013-04-06 09:28:00,
2013-04-06 05:43:00,29.3,22.0,30.15,South,184,1.0,-999.0,75,-99.99,,,0.00,weatherlink.com 1.10,2013-04-06 09:43:00,
2013-04-06 06:13:00,29.7,23.0,30.13,SW,217,0.0,-999.0,77,-99.99,,,0.00,weatherlink.com 1.10,2013-04-06 10:13:00,
2013-04-06 06:59:00,29.6,24.0,30.12,South,186,1.0,-999.0,80,-99.99,,,0.00,weatherlink.com 1.10,2013-04-06 10:59:00,
2013-04-06 08:31:00,28.5,25.0,30.10,SW,219,0.0,-999.0,88,-99.99,,,0.00,weatherlink.com 1.10,2013-04-06 12:31:00,
2013-04-06 08:44:00,28.3,25.0,30.09,North,9,1.0,-999.0,88,-99.99,,,0.00,weatherlink.com 1.10,2013-04-06 12:44:00,
2013-04-06 08:58:00,28.3,25.0,30.09,SW,221,1.0,-999.0,88,-99.99,,,0.00,weatherlink.com 1.10,2013-04-06 12:58:00,
2013-04-06 10:13:00,28.6,26.0,30.05,NE,54,0.0,-999.0,88,-99.99,,,0.00,weatherlink.com 1.10,2013-04-06 14:13:00,
2013-04-06 10:29:00,28.7,26.0,30.04,WSW,255,0.0,-999.0,89,-99.99,,,0.00,weatherlink.com 1.10,2013-04-06 14:29:00,
2013-04-06 10:43:00,28.7,26.0,30.03,SSW,211,1.0,-999.0,89,-99.99,,,0.00,weatherlink.com 1.10,2013-04-06 14:43:00,
2013-04-06 10:59:00,28.8,26.0,30.02,WSW,248,1.0,-999.0,89,-99.99,,,0.00,weatherlink.com 1.10,2013-04-06 14:59:00,
2013-04-06 11:14:00,29.0,26.0,30.02,SW,229,0.0,-999.0,89,-99.99,,,0.00,weatherlink.com 1.10,2013-04-06 15:14:00,
2013-04-06 11:28:00,29.2,26.0,30.00,ENE,73,6.0,-999.0,89,-99.99,,,0.00,weatherlink.com 1.10,2013-04-06 15:28:00,
2013-04-06 11:44:00,29.5,27.0,29.99,SSE,160,0.0,-999.0,89,-99.99,,,0.00,weatherlink.com 1.10,2013-04-06 15:44:00,
2013-04-06 12:28:00,31.1,28.0,29.94,SSW,196,1.0,-999.0,88,-99.99,,,0.00,weatherlink.com 1.10,2013-04-06 16:28:00,
2013-04-06 13:29:00,34.9,30.0,29.88,South,184,0.0,-999.0,82,-99.99,,,0.00,weatherlink.com 1.10,2013-04-06 17:29:00,
2013-04-06 13:43:00,35.3,30.0,29.87,SSW,202,1.0,-999.0,82,-99.99,,,0.00,weatherlink.com 1.10,2013-04-06 17:43:00,
2013-04-06 13:58:00,34.9,30.0,29.86,North,351,3.0,-999.0,82,-99.99,,,0.00,weatherlink.com 1.10,2013-04-06 17:58:00,
2013-04-06 14:29:00,34.4,30.0,29.84,SE,145,1.0,-999.0,85,-99.99,,,0.00,weatherlink.com 1.10,2013-04-06 18:29:00,
2013-04-06 14:43:00,34.4,30.0,29.83,SW,218,2.0,-999.0,85,-99.99,,,0.00,weatherlink.com 1.10,2013-04-06 18:43:00,
2013-04-06 14:58:00,34.5,30.0,29.82,SW,223,3.0,-999.0,84,-99.99,,,0.00,weatherlink.com 1.10,2013-04-06 18:58:00,
2013-04-06 15:14:00,34.7,30.0,29.80,SW,214,1.0,-999.0,83,-99.99,,,0.00,weatherlink.com 1.10,2013-04-06 19:14:00,
2013-04-06 15:43:00,34.8,30.0,29.79,WSW,255,0.0,-999.0,84,-99.99,,,0.00,weatherlink.com 1.10,2013-04-06 19:43:00,
2013-04-06 15:58:00,35.0,31.0,29.77,WSW,256,0.0,-999.0,84,-99.99,,,0.00,weatherlink.com 1.10,2013-04-06 19:58:00,
2013-04-06 16:14:00,35.0,31.0,29.76,NE,40,0.0,-999.0,85,-99.99,,,0.00,weatherlink.com 1.10,2013-04-06 20:14:00,
2013-04-06 16:59:00,36.4,32.0,29.73,SW,215,2.0,-999.0,83,-99.99,,,0.03,weatherlink.com 1.10,2013-04-06 20:59:00,
2013-04-06 17:14:00,36.3,32.0,29.71,East,91,1.0,-999.0,83,-99.99,,,0.04,weatherlink.com 1.10,2013-04-06 21:14:00,
2013-04-06 17:28:00,36.4,32.0,29.71,SSW,213,1.0,-999.0,83,-99.99,,,0.05,weatherlink.com 1.10,2013-04-06 21:28:00,
2013-04-06 17:58:00,36.7,32.0,29.69,East,80,0.0,-999.0,84,-99.99,,,0.06,weatherlink.com 1.10,2013-04-06 21:58:00,
2013-04-06 18:59:00,37.4,33.0,29.68,South,182,2.0,-999.0,84,-99.99,,,0.09,weatherlink.com 1.10,2013-04-06 22:59:00,
2013-04-06 19:29:00,36.0,33.0,29.68,South,176,0.0,-999.0,88,-99.99,,,0.11,weatherlink.com 1.10,2013-04-06 23:29:00,
2013-04-06 19:44:00,35.7,33.0,29.67,SSW,192,0.0,-999.0,89,-99.99,,,0.11,weatherlink.com 1.10,2013-04-06 23:44:00,
2013-04-06 19:59:00,35.4,33.0,29.66,SSW,193,1.0,-999.0,90,-99.99,,,0.12,weatherlink.com 1.10,2013-04-06 23:59:00,
2013-04-06 20:13:00,35.2,33.0,29.66,SSW,192,0.0,-999.0,90,-99.99,,,0.12,weatherlink.com 1.10,2013-04-07 00:13:00,